Time;durP1;ratioP1;P1;durP2;ratioP2;P2;SDS_P1;SDS_P2;PMS_P1;PMS_P2;Temp;Humidity;BMP_temperature;BMP_pressure;BME280_temperature;BME280_humidity;BME280_pressure;Samples;Min_cycle;Max_cycle;Signal;HPM_P1;HPM_P2
2022/01/07 00:01:34;;;;;;;14.35;5.35;;;4.20;99.90;;;;;;4807172;29;20058;-80
2022/01/07 00:04:00;;;;;;;15.65;5.70;;;4.20;99.90;;;;;;4808732;29;20054;-80
2022/01/07 00:06:26;;;;;;;18.38;6.00;;;4.20;99.90;;;;;;4808106;29;20452;-81
2022/01/07 00:08:52;;;;;;;15.52;5.57;;;4.20;99.90;;;;;;4808609;29;20556;-81
2022/01/07 00:11:18;;;;;;;13.13;5.55;;;4.20;99.90;;;;;;4806913;29;20054;-81
2022/01/07 00:13:43;;;;;;;14.02;5.78;;;4.30;99.90;;;;;;4808555;29;20386;-80
2022/01/07 00:16:11;;;;;;;12.60;5.18;;;4.10;99.90;;;;;;4807185;29;20482;-81
2022/01/07 00:18:37;;;;;;;12.60;5.40;;;4.10;99.90;;;;;;4808127;29;20131;-80
2022/01/07 00:21:03;;;;;;;12.88;5.53;;;4.10;99.90;;;;;;4808341;29;20071;-81
2022/01/07 00:23:28;;;;;;;12.13;5.45;;;4.10;99.90;;;;;;4806708;29;20502;-80
2022/01/07 00:25:54;;;;;;;16.67;5.47;;;4.10;99.90;;;;;;4807091;29;20405;-80
2022/01/07 00:28:19;;;;;;;16.92;5.70;;;4.10;99.90;;;;;;4807752;29;20058;-81
2022/01/07 00:30:45;;;;;;;15.25;6.15;;;4.10;99.90;;;;;;4808168;29;20423;-80
2022/01/07 00:33:11;;;;;;;11.77;5.72;;;4.00;99.90;;;;;;4806876;29;20094;-80
2022/01/07 00:35:37;;;;;;;15.95;5.72;;;4.00;99.90;;;;;;4807605;29;20054;-81
2022/01/07 00:38:03;;;;;;;12.90;5.70;;;4.00;99.90;;;;;;4806934;29;20050;-81
2022/01/07 00:40:29;;;;;;;14.70;5.88;;;3.90;99.90;;;;;;4805923;29;20403;-80
2022/01/07 00:42:54;;;;;;;16.50;5.47;;;4.00;99.90;;;;;;4805314;29;20055;-80
2022/01/07 00:45:21;;;;;;;15.70;5.68;;;3.90;99.90;;;;;;4806599;29;20134;-81
2022/01/07 00:47:47;;;;;;;13.98;6.18;;;3.80;99.90;;;;;;4806565;29;20063;-80
2022/01/07 00:50:13;;;;;;;16.58;5.72;;;3.80;99.90;;;;;;4807553;29;20055;-80
2022/01/07 00:52:38;;;;;;;10.35;5.32;;;3.80;99.90;;;;;;4806054;29;20090;-79
2022/01/07 00:55:05;;;;;;;16.15;6.18;;;3.80;99.90;;;;;;4807701;29;20409;-80
2022/01/07 00:57:30;;;;;;;13.50;5.75;;;3.70;99.90;;;;;;4805907;29;20108;-80
2022/01/07 00:59:56;;;;;;;14.13;5.60;;;3.70;99.90;;;;;;4806769;29;20444;-80
2022/01/07 01:02:22;;;;;;;16.48;6.47;;;3.60;99.90;;;;;;4806507;29;20049;-81
2022/01/07 01:04:47;;;;;;;13.75;5.70;;;3.60;99.90;;;;;;4806438;29;20133;-80
2022/01/07 01:07:13;;;;;;;15.13;5.60;;;3.60;99.90;;;;;;4807538;29;20055;-80
2022/01/07 01:09:39;;;;;;;15.48;6.05;;;3.60;99.90;;;;;;4806110;29;20051;-80
2022/01/07 01:12:05;;;;;;;16.00;5.95;;;3.60;99.90;;;;;;4807341;29;20129;-81
2022/01/07 01:14:31;;;;;;;12.85;5.43;;;3.50;99.90;;;;;;4806969;29;20051;-81
2022/01/07 01:16:58;;;;;;;13.77;5.43;;;3.50;99.90;;;;;;4807047;29;20096;-80
2022/01/07 01:19:24;;;;;;;12.23;5.25;;;3.50;99.90;;;;;;4806957;29;20054;-81
2022/01/07 01:21:49;;;;;;;14.15;6.22;;;3.50;99.90;;;;;;4807233;29;20093;-80
2022/01/07 01:24:15;;;;;;;14.32;6.03;;;3.50;99.90;;;;;;4806396;29;20110;-80
2022/01/07 01:26:41;;;;;;;11.15;5.60;;;3.40;99.90;;;;;;4806786;29;20092;-81
2022/01/07 01:29:06;;;;;;;14.25;5.80;;;3.50;99.90;;;;;;4807230;29;20134;-80
2022/01/07 01:31:35;;;;;;;16.52;5.78;;;3.40;99.90;;;;;;4806758;29;20517;-81
2022/01/07 01:34:01;;;;;;;15.45;5.95;;;3.40;99.90;;;;;;4807175;29;20059;-80
2022/01/07 01:36:27;;;;;;;13.52;6.10;;;3.40;99.90;;;;;;4806647;29;20138;-81
2022/01/07 01:38:52;;;;;;;16.90;6.35;;;3.40;99.90;;;;;;4806018;29;20413;-80
2022/01/07 01:41:18;;;;;;;14.80;5.85;;;3.40;99.90;;;;;;4806895;29;20047;-80
2022/01/07 01:43:45;;;;;;;15.68;6.18;;;3.40;99.90;;;;;;4806526;29;20427;-80
2022/01/07 01:46:10;;;;;;;16.20;6.60;;;3.30;99.90;;;;;;4805609;29;20094;-80
2022/01/07 01:48:36;;;;;;;15.02;6.05;;;3.40;99.90;;;;;;4806400;29;20464;-80
2022/01/07 01:51:02;;;;;;;13.60;6.35;;;3.40;99.90;;;;;;4806793;29;20367;-81
2022/01/07 01:53:27;;;;;;;17.98;6.60;;;3.30;99.90;;;;;;4806140;29;20062;-81
2022/01/07 01:55:53;;;;;;;15.32;6.38;;;3.30;99.90;;;;;;4806839;29;20133;-80
2022/01/07 01:58:19;;;;;;;11.20;6.47;;;3.30;99.90;;;;;;4806591;29;20111;-80
2022/01/07 02:00:45;;;;;;;14.27;6.43;;;3.30;99.90;;;;;;4805017;29;20054;-80
2022/01/07 02:03:10;;;;;;;12.20;6.78;;;3.30;99.90;;;;;;4806581;29;20050;-80
2022/01/07 02:05:36;;;;;;;15.45;7.20;;;3.30;99.90;;;;;;4806256;29;20103;-81
2022/01/07 02:08:01;;;;;;;13.48;6.95;;;3.30;99.90;;;;;;4806810;29;20057;-80
2022/01/07 02:10:27;;;;;;;13.38;6.70;;;3.20;99.90;;;;;;4805345;29;20047;-80
2022/01/07 02:12:53;;;;;;;12.35;6.90;;;3.20;99.90;;;;;;4805813;29;20093;-81
2022/01/07 02:15:19;;;;;;;14.40;6.65;;;3.20;99.90;;;;;;4804551;29;20054;-80
2022/01/07 02:17:46;;;;;;;15.23;6.88;;;3.20;99.90;;;;;;4804680;29;20046;-80
2022/01/07 02:20:13;;;;;;;12.68;7.30;;;3.20;99.90;;;;;;4805043;29;20079;-80
2022/01/07 02:22:39;;;;;;;13.32;7.03;;;3.20;99.90;;;;;;4804639;29;20422;-80
2022/01/07 02:25:04;;;;;;;16.70;7.53;;;3.20;99.90;;;;;;4805161;29;20063;-80
2022/01/07 02:27:30;;;;;;;9.65;7.03;;;3.20;99.90;;;;;;4805097;29;20047;-80
2022/01/07 02:29:57;;;;;;;12.82;7.43;;;3.20;99.90;;;;;;4804654;29;20414;-80
2022/01/07 02:32:23;;;;;;;9.00;6.72;;;3.20;99.90;;;;;;4806187;29;20413;-80
2022/01/07 02:34:49;;;;;;;11.30;7.13;;;3.10;99.90;;;;;;4805408;29;20057;-81
2022/01/07 02:37:15;;;;;;;10.50;7.00;;;3.20;99.90;;;;;;4805982;29;20069;-80
2022/01/07 02:39:40;;;;;;;10.68;7.20;;;3.20;99.90;;;;;;4805555;29;20093;-80
2022/01/07 02:42:06;;;;;;;12.25;7.32;;;3.20;99.90;;;;;;4804910;29;20078;-81
2022/01/07 02:44:32;;;;;;;13.57;7.30;;;3.20;99.90;;;;;;4804984;29;20107;-80
2022/01/07 02:46:58;;;;;;;10.40;7.18;;;3.20;99.90;;;;;;4804114;29;20116;-80
2022/01/07 02:49:24;;;;;;;9.75;7.30;;;3.20;99.90;;;;;;4804092;29;20133;-80
2022/01/07 02:51:49;;;;;;;11.38;6.78;;;3.30;99.90;;;;;;4803208;29;20134;-81
2022/01/07 02:54:15;;;;;;;14.65;7.13;;;3.20;99.90;;;;;;4804753;29;20509;-81
2022/01/07 02:56:41;;;;;;;12.40;6.93;;;3.20;99.90;;;;;;4804071;29;20062;-81
2022/01/07 02:59:07;;;;;;;14.77;6.68;;;3.20;99.90;;;;;;4804805;29;20050;-80
2022/01/07 03:01:33;;;;;;;11.73;7.18;;;3.20;99.90;;;;;;4803351;29;20038;-80
2022/01/07 03:03:58;;;;;;;12.73;7.53;;;3.20;99.90;;;;;;4804525;29;20046;-80
2022/01/07 03:06:24;;;;;;;11.77;7.28;;;3.30;99.90;;;;;;4804675;29;20076;-80
2022/01/07 03:08:50;;;;;;;11.80;7.50;;;3.20;99.90;;;;;;4805200;29;20493;-81
2022/01/07 03:11:16;;;;;;;12.57;7.53;;;3.30;99.90;;;;;;4805493;29;20082;-80
2022/01/07 03:13:41;;;;;;;11.82;7.65;;;3.20;99.90;;;;;;4805190;29;20383;-80
2022/01/07 03:16:07;;;;;;;13.82;7.35;;;3.20;99.90;;;;;;4804358;29;20050;-80
2022/01/07 03:18:33;;;;;;;11.35;7.47;;;3.20;99.90;;;;;;4804623;29;20047;-80
2022/01/07 03:21:00;;;;;;;17.33;8.02;;;3.20;99.90;;;;;;4804204;29;20422;-80
2022/01/07 03:23:25;;;;;;;11.95;7.60;;;3.20;99.90;;;;;;4805357;29;20260;-81
2022/01/07 03:25:51;;;;;;;13.02;7.63;;;3.20;99.90;;;;;;4807360;29;20616;-81
2022/01/07 03:28:17;;;;;;;11.13;7.68;;;3.20;99.90;;;;;;4811406;29;20071;-81
2022/01/07 03:30:43;;;;;;;14.48;8.23;;;3.30;99.90;;;;;;4811099;29;20133;-81
2022/01/07 03:33:08;;;;;;;15.00;8.15;;;3.30;99.90;;;;;;4810227;29;20047;-81
2022/01/07 03:35:34;;;;;;;10.13;7.95;;;3.20;99.90;;;;;;4810219;29;20058;-81
2022/01/07 03:38:00;;;;;;;11.10;7.88;;;3.20;99.90;;;;;;4809838;29;20442;-80
2022/01/07 03:40:26;;;;;;;12.95;7.93;;;3.30;99.90;;;;;;4811309;29;20482;-81
2022/01/07 03:42:51;;;;;;;11.88;7.75;;;3.30;99.90;;;;;;4810857;29;20069;-81
2022/01/07 03:45:17;;;;;;;12.60;8.27;;;3.30;99.90;;;;;;4811360;29;20055;-80
2022/01/07 03:47:43;;;;;;;15.68;9.60;;;3.30;99.90;;;;;;4809844;29;20390;-81
2022/01/07 03:50:11;;;;;;;14.48;8.73;;;3.30;99.90;;;;;;4811213;29;20063;-81
2022/01/07 03:52:37;;;;;;;13.55;8.10;;;3.30;99.90;;;;;;4810904;29;20047;-80
2022/01/07 03:55:03;;;;;;;11.13;8.10;;;3.30;99.90;;;;;;4809623;29;20095;-81
2022/01/07 03:57:29;;;;;;;9.65;8.05;;;3.30;99.90;;;;;;4810017;29;20051;-80
2022/01/07 03:59:54;;;;;;;9.57;7.97;;;3.30;99.90;;;;;;4809933;29;20141;-81
2022/01/07 04:02:20;;;;;;;14.90;8.30;;;3.40;99.90;;;;;;4811196;29;20401;-80
2022/01/07 04:04:46;;;;;;;15.50;7.90;;;3.30;99.90;;;;;;4810260;29;20051;-81
2022/01/07 04:07:12;;;;;;;11.55;7.47;;;3.40;99.90;;;;;;4809918;29;20055;-81
2022/01/07 04:09:37;;;;;;;11.90;8.00;;;3.30;99.90;;;;;;4810921;29;20459;-80
2022/01/07 04:12:03;;;;;;;11.82;8.00;;;3.30;99.90;;;;;;4810597;29;20050;-81
2022/01/07 04:14:29;;;;;;;10.13;7.55;;;3.30;99.90;;;;;;4810999;29;20051;-80
2022/01/07 04:16:55;;;;;;;13.05;8.25;;;3.40;99.90;;;;;;4794600;29;20051;-81
2022/01/07 04:19:21;;;;;;;10.05;7.18;;;3.40;99.90;;;;;;4811028;29;20078;-80
2022/01/07 04:21:49;;;;;;;9.95;7.35;;;3.40;99.90;;;;;;4809485;29;20051;-82
2022/01/07 04:24:14;;;;;;;9.05;7.13;;;3.30;99.90;;;;;;4810774;29;20055;-80
2022/01/07 04:26:40;;;;;;;11.38;7.32;;;3.40;99.90;;;;;;4810942;29;20054;-80
2022/01/07 04:29:06;;;;;;;12.15;7.32;;;3.40;99.90;;;;;;4810466;29;20046;-81
2022/01/07 04:31:31;;;;;;;9.88;7.18;;;3.30;99.90;;;;;;4810933;29;20078;-81
2022/01/07 04:33:57;;;;;;;9.93;8.00;;;3.30;99.90;;;;;;4810530;29;20043;-80
2022/01/07 04:36:22;;;;;;;11.35;7.68;;;3.40;99.90;;;;;;4809822;29;20459;-81
2022/01/07 04:38:48;;;;;;;12.73;8.45;;;3.40;99.90;;;;;;4807735;29;20046;-80
2022/01/07 04:41:14;;;;;;;11.05;7.80;;;3.40;99.90;;;;;;4807566;29;20042;-80
2022/01/07 04:43:39;;;;;;;11.75;8.18;;;3.40;99.90;;;;;;4807914;29;20176;-80
2022/01/07 04:46:05;;;;;;;11.45;7.88;;;3.40;99.90;;;;;;4807551;29;20078;-80
2022/01/07 04:48:31;;;;;;;11.00;8.10;;;3.40;99.90;;;;;;4807844;29;20460;-80
2022/01/07 04:50:56;;;;;;;10.13;7.95;;;3.40;99.90;;;;;;4807821;29;20470;-81
2022/01/07 04:53:23;;;;;;;10.60;8.20;;;3.40;99.90;;;;;;4806246;29;20087;-81
2022/01/07 04:55:49;;;;;;;8.75;7.28;;;3.30;99.90;;;;;;4806828;29;20551;-81
2022/01/07 04:58:15;;;;;;;10.27;7.75;;;3.40;99.90;;;;;;4807208;29;20051;-80
2022/01/07 05:00:42;;;;;;;13.27;7.95;;;3.50;99.90;;;;;;4806363;29;20141;-80
2022/01/07 05:03:07;;;;;;;10.00;7.60;;;3.50;99.90;;;;;;4807269;29;20062;-80
2022/01/07 05:05:33;;;;;;;11.32;7.68;;;3.50;99.90;;;;;;4807721;29;20054;-80
2022/01/07 05:07:59;;;;;;;9.10;7.28;;;3.50;99.90;;;;;;4806001;29;20057;-81
2022/01/07 05:10:24;;;;;;;11.93;7.68;;;3.50;99.90;;;;;;4806473;29;20102;-80
2022/01/07 05:12:50;;;;;;;9.43;7.63;;;3.50;99.90;;;;;;4806494;29;20046;-80
2022/01/07 05:15:16;;;;;;;11.45;7.40;;;3.50;99.90;;;;;;4805586;29;20120;-80
2022/01/07 05:17:43;;;;;;;7.80;7.00;;;3.60;99.90;;;;;;4806582;29;20047;-80
2022/01/07 05:20:09;;;;;;;8.30;6.72;;;3.50;99.90;;;;;;4790065;29;20054;-80
2022/01/07 05:22:35;;;;;;;9.70;7.05;;;3.50;99.90;;;;;;4805281;29;20134;-80
2022/01/07 05:25:00;;;;;;;10.95;7.47;;;3.70;99.90;;;;;;4804634;29;20127;-80
2022/01/07 05:27:26;;;;;;;7.68;6.88;;;3.60;99.90;;;;;;4807209;29;20482;-80
2022/01/07 05:29:52;;;;;;;8.57;7.10;;;3.60;99.90;;;;;;4807383;29;20091;-80
2022/01/07 05:32:19;;;;;;;9.15;7.07;;;3.60;99.90;;;;;;4806760;29;20138;-80
2022/01/07 05:34:45;;;;;;;10.93;7.32;;;3.60;99.90;;;;;;4807137;29;20058;-80
2022/01/07 05:37:11;;;;;;;10.43;7.05;;;3.60;99.90;;;;;;4806487;29;20517;-80
2022/01/07 05:39:37;;;;;;;8.45;7.55;;;3.60;99.90;;;;;;4806884;29;20493;-79
2022/01/07 05:42:03;;;;;;;12.68;7.80;;;3.60;99.90;;;;;;4806506;29;20043;-80
2022/01/07 05:44:29;;;;;;;10.68;7.57;;;3.60;99.90;;;;;;4806801;29;20418;-82
2022/01/07 05:46:55;;;;;;;10.88;8.10;;;3.60;99.90;;;;;;4805744;29;20051;-82
2022/01/07 05:49:20;;;;;;;8.73;7.07;;;3.60;99.90;;;;;;4806182;29;20062;-81
2022/01/07 05:51:46;;;;;;;10.50;7.97;;;3.60;99.90;;;;;;4805542;29;20039;-81
2022/01/07 05:54:12;;;;;;;10.30;7.43;;;3.60;99.90;;;;;;4804751;29;20093;-83
2022/01/07 05:56:37;;;;;;;10.20;7.03;;;3.70;99.90;;;;;;4805749;29;20474;-82
2022/01/07 05:59:03;;;;;;;13.10;8.25;;;3.60;99.90;;;;;;4806034;29;20058;-82
2022/01/07 06:01:29;;;;;;;9.73;6.90;;;3.70;99.90;;;;;;4805361;29;20551;-78
2022/01/07 06:03:55;;;;;;;9.63;7.10;;;3.70;99.90;;;;;;4806452;29;20141;-80
2022/01/07 06:06:20;;;;;;;8.90;6.70;;;3.70;99.90;;;;;;4805897;29;20770;-79
2022/01/07 06:08:46;;;;;;;8.50;6.85;;;3.60;99.90;;;;;;4806356;29;20129;-80
2022/01/07 06:11:12;;;;;;;9.00;7.10;;;3.70;99.90;;;;;;4804993;29;20090;-79
2022/01/07 06:13:38;;;;;;;9.13;6.80;;;3.70;99.90;;;;;;4806520;29;20050;-79
2022/01/07 06:16:04;;;;;;;8.60;6.53;;;3.70;99.90;;;;;;4804796;29;20405;-79
2022/01/07 06:18:29;;;;;;;8.50;6.90;;;3.70;99.90;;;;;;4806056;29;20566;-79
2022/01/07 06:20:55;;;;;;;8.70;7.03;;;3.70;99.90;;;;;;4805861;29;20141;-78
2022/01/07 06:23:21;;;;;;;8.63;6.97;;;3.70;99.90;;;;;;4805506;29;20051;-79
2022/01/07 06:25:49;;;;;;;8.07;6.88;;;3.70;99.90;;;;;;4806158;29;20373;-79
2022/01/07 06:28:18;;;;;;;9.25;7.32;;;3.70;99.90;;;;;;4805424;29;20059;-79
2022/01/07 06:30:44;;;;;;;7.95;6.53;;;3.70;99.90;;;;;;4806078;29;20050;-79
2022/01/07 06:33:09;;;;;;;9.32;6.68;;;3.70;99.90;;;;;;4804626;29;20051;-79
2022/01/07 06:35:35;;;;;;;7.72;6.93;;;3.70;99.90;;;;;;4804959;29;20089;-79
2022/01/07 06:38:01;;;;;;;7.70;6.72;;;3.70;99.90;;;;;;4806193;29;20133;-79
2022/01/07 06:40:26;;;;;;;7.88;7.07;;;3.80;99.90;;;;;;4805344;29;20085;-79
2022/01/07 06:42:52;;;;;;;8.18;7.10;;;3.70;99.90;;;;;;4805908;29;20107;-79
2022/01/07 06:45:17;;;;;;;8.68;7.50;;;3.70;99.90;;;;;;4805576;29;20073;-79
2022/01/07 06:47:43;;;;;;;9.98;7.05;;;3.80;99.90;;;;;;4804822;29;20050;-79
2022/01/07 06:50:09;;;;;;;10.50;6.95;;;3.80;99.90;;;;;;4805547;29;20089;-79
2022/01/07 06:52:35;;;;;;;9.35;7.35;;;3.80;99.90;;;;;;4805933;29;20055;-79
2022/01/07 06:55:00;;;;;;;9.10;7.57;;;3.80;99.90;;;;;;4806145;29;20063;-79
2022/01/07 06:57:26;;;;;;;9.38;7.57;;;3.80;99.90;;;;;;4805650;29;20051;-79
2022/01/07 06:59:52;;;;;;;8.73;7.78;;;3.80;99.90;;;;;;4789465;29;20417;-79
2022/01/07 07:02:17;;;;;;;8.48;7.38;;;3.80;99.90;;;;;;4805270;29;20053;-79
2022/01/07 07:04:44;;;;;;;9.77;7.80;;;3.80;99.90;;;;;;4804643;29;20058;-79
2022/01/07 07:07:10;;;;;;;9.80;8.80;;;3.90;99.90;;;;;;4805400;29;20134;-79
2022/01/07 07:09:36;;;;;;;12.00;8.60;;;3.90;99.90;;;;;;4805696;29;20560;-79
2022/01/07 07:12:02;;;;;;;12.23;8.50;;;3.90;99.90;;;;;;4804527;29;20043;-79
2022/01/07 07:14:28;;;;;;;11.45;8.75;;;3.90;99.90;;;;;;4805102;29;20494;-79
2022/01/07 07:16:53;;;;;;;11.70;9.10;;;3.90;99.90;;;;;;4804432;29;20409;-79
2022/01/07 07:19:19;;;;;;;9.48;8.38;;;4.00;99.90;;;;;;4804311;29;20057;-79
2022/01/07 07:21:44;;;;;;;14.30;9.60;;;3.90;99.90;;;;;;4804609;29;20409;-79
2022/01/07 07:24:10;;;;;;;10.65;8.98;;;4.00;99.90;;;;;;4805486;29;20055;-79
2022/01/07 07:26:36;;;;;;;11.93;9.02;;;4.00;99.90;;;;;;4805323;29;20047;-79
2022/01/07 07:29:01;;;;;;;11.77;9.48;;;4.00;99.90;;;;;;4805208;29;20051;-79
2022/01/07 07:31:27;;;;;;;14.00;10.15;;;4.00;99.90;;;;;;4804232;29;20055;-79
2022/01/07 07:34:06;;;;;;;14.50;9.57;;;4.10;99.90;;;;;;4804483;29;20105;-79
2022/01/07 07:36:32;;;;;;;14.38;9.90;;;4.10;99.90;;;;;;4804066;29;20055;-79
2022/01/07 07:39:00;;;;;;;12.93;9.82;;;4.10;99.90;;;;;;4804285;29;20509;-79
2022/01/07 07:41:26;;;;;;;13.65;10.60;;;4.10;99.90;;;;;;4804587;29;20046;-79
2022/01/07 07:43:51;;;;;;;15.32;10.18;;;4.10;99.90;;;;;;4805011;29;20055;-79
2022/01/07 07:46:17;;;;;;;14.13;10.45;;;4.10;99.90;;;;;;4804964;29;20050;-79
2022/01/07 07:48:45;;;;;;;12.02;10.23;;;4.10;99.90;;;;;;4819319;29;20059;-79
2022/01/07 07:51:10;;;;;;;15.80;10.27;;;4.10;99.90;;;;;;4804235;29;20055;-79
2022/01/07 07:53:36;;;;;;;12.73;10.98;;;4.20;99.90;;;;;;4804801;29;20067;-79
2022/01/07 07:56:02;;;;;;;14.13;10.85;;;4.20;99.90;;;;;;4805276;29;20096;-79
2022/01/07 07:58:27;;;;;;;16.02;11.18;;;4.20;99.90;;;;;;4804787;29;20482;-79
2022/01/07 08:00:53;;;;;;;13.23;11.55;;;4.30;99.90;;;;;;4805185;29;20417;-79
2022/01/07 08:03:22;;;;;;;15.63;11.07;;;4.20;99.90;;;;;;4804751;29;20411;-79
2022/01/07 08:05:48;;;;;;;12.48;10.57;;;4.20;99.90;;;;;;4805219;29;20059;-79
2022/01/07 08:08:14;;;;;;;18.23;11.27;;;4.20;99.90;;;;;;4803968;29;20048;-79
2022/01/07 08:10:46;;;;;;;17.77;11.90;;;4.30;99.90;;;;;;4804690;29;20077;-79
2022/01/07 08:18:24;;;;;;;19.75;12.65;;;4.30;99.90;;;;;;4807153;29;20050;-81
2022/01/07 08:20:53;;;;;;;21.45;13.45;;;4.30;99.90;;;;;;4807203;29;20050;-80
2022/01/07 08:23:19;;;;;;;17.15;13.10;;;4.30;99.90;;;;;;4808348;29;20046;-79
2022/01/07 08:25:45;;;;;;;17.83;13.57;;;4.30;99.90;;;;;;4808232;29;20382;-80
2022/01/07 08:28:12;;;;;;;22.10;14.10;;;4.40;99.90;;;;;;4808303;29;20043;-80
2022/01/07 08:30:58;;;;;;;17.70;13.73;;;4.40;99.90;;;;;;4807868;29;20058;-80
2022/01/07 08:36:07;;;;;;;20.50;13.65;;;4.50;99.90;;;;;;4808247;29;20057;-80
2022/01/07 08:38:33;;;;;;;17.08;13.38;;;4.50;99.90;;;;;;4807732;29;20138;-80
2022/01/07 08:40:58;;;;;;;17.55;13.63;;;4.50;99.90;;;;;;4806193;29;20097;-81
2022/01/07 08:43:24;;;;;;;18.02;13.35;;;4.60;99.90;;;;;;4805374;29;20471;-82
2022/01/07 08:45:50;;;;;;;24.27;13.73;;;4.60;99.90;;;;;;4806864;29;20478;-81
2022/01/07 08:48:15;;;;;;;19.17;12.95;;;4.60;99.90;;;;;;4806914;29;20053;-81
2022/01/07 08:50:41;;;;;;;20.85;14.05;;;4.70;99.90;;;;;;4806676;29;20103;-81
2022/01/07 08:53:06;;;;;;;19.90;14.48;;;4.70;99.90;;;;;;4806443;29;20046;-80
2022/01/07 08:55:33;;;;;;;18.98;13.85;;;4.70;99.90;;;;;;4807508;29;20051;-81
2022/01/07 08:57:58;;;;;;;22.58;14.35;;;4.80;99.90;;;;;;4807799;29;20105;-81
2022/01/07 09:00:24;;;;;;;19.65;13.98;;;4.80;99.90;;;;;;4806651;29;20086;-80
2022/01/07 09:02:50;;;;;;;18.65;14.63;;;4.80;99.90;;;;;;4807730;29;20047;-80
2022/01/07 09:05:16;;;;;;;23.17;14.75;;;4.90;99.90;;;;;;4807675;29;20133;-80
2022/01/07 09:07:41;;;;;;;21.08;15.27;;;5.00;99.90;;;;;;4806996;29;20137;-80
2022/01/07 09:10:07;;;;;;;22.23;15.23;;;4.90;99.90;;;;;;4807633;29;20047;-80
2022/01/07 09:12:33;;;;;;;24.13;14.60;;;5.00;99.90;;;;;;4807221;29;20461;-80
2022/01/07 09:14:58;;;;;;;24.15;15.25;;;5.00;99.90;;;;;;4807229;29;20090;-80
2022/01/07 09:17:26;;;;;;;23.13;15.15;;;5.00;99.90;;;;;;4807501;29;20054;-80
2022/01/07 09:19:52;;;;;;;20.83;14.20;;;5.00;99.90;;;;;;4807437;29;20046;-80
2022/01/07 09:22:17;;;;;;;21.08;15.57;;;5.10;99.90;;;;;;4806287;29;20043;-80
2022/01/07 09:24:43;;;;;;;23.00;15.23;;;5.10;99.90;;;;;;4806603;29;20133;-80
2022/01/07 09:27:09;;;;;;;26.65;15.48;;;5.10;99.90;;;;;;4807404;29;20050;-80
2022/01/07 09:29:34;;;;;;;23.65;16.30;;;5.20;99.90;;;;;;4805403;29;20493;-80
2022/01/07 09:32:00;;;;;;;23.38;15.40;;;5.30;99.90;;;;;;4807293;29;20047;-80
2022/01/07 09:34:25;;;;;;;19.17;13.73;;;5.30;99.90;;;;;;4807222;29;20054;-80
2022/01/07 09:36:51;;;;;;;22.17;13.35;;;5.40;99.90;;;;;;4806720;29;20065;-80
2022/01/07 09:39:17;;;;;;;24.42;14.32;;;5.30;99.90;;;;;;4807122;29;20051;-79
2022/01/07 09:41:42;;;;;;;22.67;13.85;;;5.40;99.90;;;;;;4806603;29;20394;-80
2022/01/07 09:44:12;;;;;;;23.20;14.77;;;5.40;99.90;;;;;;4807021;29;20402;-80
2022/01/07 09:46:39;;;;;;;19.88;12.20;;;5.40;99.90;;;;;;4806626;29;20401;-80
2022/01/07 09:49:04;;;;;;;16.30;10.00;;;5.30;99.90;;;;;;4805841;29;20090;-80
2022/01/07 09:51:30;;;;;;;10.75;8.40;;;5.30;99.90;;;;;;4805714;29;20090;-80
2022/01/07 09:53:56;;;;;;;13.63;9.20;;;5.10;99.90;;;;;;4804979;29;20175;-80
2022/01/07 09:56:22;;;;;;;14.23;9.10;;;5.00;99.90;;;;;;4806866;29;20058;-80
2022/01/07 09:58:47;;;;;;;17.00;9.13;;;4.90;99.90;;;;;;4806454;29;20099;-80
2022/01/07 10:01:19;;;;;;;14.32;9.75;;;4.80;99.90;;;;;;4806658;29;20113;-80
2022/01/07 10:03:45;;;;;;;11.63;8.27;;;4.70;99.90;;;;;;4805187;29;20055;-80
2022/01/07 10:06:21;;;;;;;13.60;7.85;;;4.70;99.90;;;;;;4805582;29;20138;-80
2022/01/07 10:09:06;;;;;;;9.50;6.25;;;4.70;99.90;;;;;;4806177;29;20054;-80
2022/01/07 10:11:32;;;;;;;8.38;5.80;;;4.60;99.90;;;;;;4806535;29;20046;-80
2022/01/07 10:14:15;;;;;;;10.38;4.68;;;4.60;99.90;;;;;;4804908;29;20058;-81
2022/01/07 10:16:54;;;;;;;7.68;4.28;;;4.70;99.90;;;;;;4805995;29;20054;-80
2022/01/07 10:19:35;;;;;;;6.07;3.35;;;4.60;99.90;;;;;;4806267;29;20494;-80
2022/01/07 10:22:06;;;;;;;6.25;3.20;;;4.60;99.90;;;;;;4804973;29;20058;-79
2022/01/07 10:24:31;;;;;;;6.43;2.35;;;4.60;99.90;;;;;;4806350;29;20046;-81
2022/01/07 10:27:13;;;;;;;6.43;2.70;;;4.60;99.90;;;;;;4805932;29;20059;-80
2022/01/07 10:29:40;;;;;;;3.92;2.65;;;4.60;99.90;;;;;;4805797;29;20062;-81
2022/01/07 10:32:38;;;;;;;4.03;1.85;;;4.60;99.90;;;;;;4805017;29;20061;-80
2022/01/07 10:35:14;;;;;;;3.58;1.50;;;4.60;99.90;;;;;;4803881;29;20540;-80
2022/01/07 10:37:59;;;;;;;3.35;1.10;;;4.50;99.90;;;;;;4804551;29;20051;-81
2022/01/07 10:40:36;;;;;;;4.03;1.17;;;4.60;99.90;;;;;;4820120;29;20397;-80
2022/01/07 10:43:13;;;;;;;3.70;1.20;;;4.70;99.90;;;;;;4805618;29;20398;-80
2022/01/07 10:45:40;;;;;;;4.25;1.35;;;4.80;99.90;;;;;;4806046;29;20059;-80
2022/01/07 10:48:08;;;;;;;4.10;1.58;;;4.80;99.90;;;;;;4804862;29;20062;-80
2022/01/07 10:50:38;;;;;;;3.15;1.58;;;4.90;99.90;;;;;;4805684;29;20066;-80
2022/01/07 10:53:25;;;;;;;4.13;2.40;;;4.90;99.90;;;;;;4803182;29;20063;-80
2022/01/07 10:56:03;;;;;;;8.32;3.00;;;4.90;99.90;;;;;;4804381;29;20059;-80
2022/01/07 10:58:30;;;;;;;6.35;3.10;;;4.80;99.90;;;;;;4805959;29;20055;-80
2022/01/07 11:00:55;;;;;;;6.10;3.03;;;4.80;99.90;;;;;;4789082;29;20524;-80
2022/01/07 11:03:21;;;;;;;10.57;4.80;;;4.80;99.90;;;;;;4804546;29;20097;-80
2022/01/07 11:05:47;;;;;;;10.77;5.03;;;4.90;99.90;;;;;;4804273;29;20444;-80
2022/01/07 11:08:14;;;;;;;11.35;4.85;;;4.80;99.90;;;;;;4805681;29;20490;-80
2022/01/07 11:10:39;;;;;;;9.02;4.68;;;4.80;99.90;;;;;;4804571;29;20054;-80
2022/01/07 11:13:05;;;;;;;8.60;4.60;;;4.80;99.90;;;;;;4804107;29;20069;-80
2022/01/07 11:15:31;;;;;;;9.43;4.90;;;4.80;99.90;;;;;;4789587;29;20074;-80
2022/01/07 11:17:56;;;;;;;9.77;4.97;;;4.80;99.90;;;;;;4804924;29;20502;-80
2022/01/07 11:20:24;;;;;;;13.35;5.30;;;4.70;99.90;;;;;;4805702;29;20050;-80
2022/01/07 11:22:51;;;;;;;11.98;5.88;;;4.70;99.90;;;;;;4803966;29;20125;-80
2022/01/07 11:25:16;;;;;;;10.73;6.43;;;4.60;99.90;;;;;;4804443;29;20057;-80
2022/01/07 11:27:52;;;;;;;14.90;7.57;;;4.70;99.90;;;;;;4805450;29;20047;-80
2022/01/07 11:30:23;;;;;;;14.55;7.03;;;4.70;99.90;;;;;;4805531;29;20058;-80
2022/01/07 11:32:52;;;;;;;12.98;7.38;;;4.80;99.90;;;;;;4805156;29;20050;-80
2022/01/07 11:35:21;;;;;;;14.15;8.18;;;4.80;99.90;;;;;;4804279;29;20481;-80
2022/01/07 11:37:47;;;;;;;18.50;8.82;;;4.80;99.90;;;;;;4805238;29;20058;-80
2022/01/07 11:40:29;;;;;;;14.55;8.73;;;4.90;99.90;;;;;;4805316;29;20058;-80
2022/01/07 11:42:58;;;;;;;15.95;8.32;;;4.80;99.90;;;;;;4804665;29;20528;-80
2022/01/07 11:45:30;;;;;;;18.23;8.20;;;4.90;99.90;;;;;;4803942;29;20640;-79
2022/01/07 11:47:57;;;;;;;11.98;8.05;;;4.90;99.90;;;;;;4808177;29;20555;-80
2022/01/07 11:50:25;;;;;;;14.68;8.20;;;4.90;99.90;;;;;;4807553;29;20498;-80
2022/01/07 11:52:55;;;;;;;15.23;8.32;;;4.90;99.90;;;;;;4792976;29;20406;-80
2022/01/07 11:55:29;;;;;;;15.95;9.80;;;4.90;99.90;;;;;;4807429;29;20498;-79
2022/01/07 11:58:03;;;;;;;15.45;9.70;;;4.90;99.90;;;;;;4808119;29;20533;-80
2022/01/07 12:00:58;;;;;;;14.38;9.55;;;5.10;99.90;;;;;;4807755;29;20046;-79
2022/01/07 12:03:37;;;;;;;20.88;10.95;;;5.10;99.90;;;;;;4808715;29;20057;-80
2022/01/07 12:06:24;;;;;;;18.25;10.15;;;5.20;99.90;;;;;;4808330;29;20059;-80
2022/01/07 12:08:59;;;;;;;17.10;10.93;;;5.20;99.90;;;;;;4808614;29;20059;-79
2022/01/07 12:11:25;;;;;;;15.40;7.53;;;5.30;99.90;;;;;;4808548;29;20051;-79
2022/01/07 12:13:51;;;;;;;13.52;7.85;;;5.20;99.90;;;;;;4807467;29;20055;-79
2022/01/07 12:16:31;;;;;;;11.35;5.57;;;5.20;99.90;;;;;;4807214;29;20116;-79
2022/01/07 12:19:11;;;;;;;11.32;6.50;;;5.20;99.90;;;;;;4806999;29;20460;-80
2022/01/07 12:21:38;;;;;;;;;;;5.10;99.90;;;;;;4808872;29;20129;-79
2022/01/07 12:24:07;;;;;;;10.30;5.43;;;5.10;99.90;;;;;;4807997;29;20262;-80
2022/01/07 12:26:32;;;;;;;13.00;4.78;;;5.00;99.90;;;;;;4807191;29;20062;-79
2022/01/07 12:28:58;;;;;;;10.38;4.63;;;4.90;99.90;;;;;;4808001;29;20058;-80
2022/01/07 12:31:24;;;;;;;12.50;3.90;;;4.90;99.90;;;;;;4808306;29;20061;-79
2022/01/07 12:33:53;;;;;;;11.75;3.67;;;4.70;99.90;;;;;;4808433;29;20062;-80
2022/01/07 12:36:29;;;;;;;11.65;3.90;;;4.70;99.90;;;;;;4806487;29;20125;-79
2022/01/07 12:39:03;;;;;;;11.18;3.17;;;4.60;99.90;;;;;;4806990;29;20054;-79
2022/01/07 12:41:29;;;;;;;10.27;4.57;;;4.60;99.90;;;;;;4807073;29;20406;-80
2022/01/07 12:44:05;;;;;;;13.00;3.40;;;4.60;99.90;;;;;;4806987;29;20054;-80
2022/01/07 12:46:30;;;;;;;12.80;3.42;;;4.70;99.90;;;;;;4806916;29;20078;-80
2022/01/07 12:48:56;;;;;;;7.22;2.38;;;4.70;99.90;;;;;;4806599;29;20043;-81
2022/01/07 12:51:22;;;;;;;5.80;1.80;;;4.70;99.90;;;;;;4808019;29;20042;-80
2022/01/07 12:53:58;;;;;;;5.25;1.90;;;4.70;99.90;;;;;;4806630;29;20061;-80
2022/01/07 12:56:32;;;;;;;7.50;2.10;;;4.70;99.90;;;;;;4807904;29;20054;-81